createdAt,value
2023-02-22T00:01:07.374Z,25.87
2023-02-22T00:03:36.756Z,28.63
2023-02-22T00:06:07.130Z,30.73
2023-02-22T00:08:38.102Z,24.50
2023-02-22T00:11:09.149Z,28.33
2023-02-22T00:13:37.896Z,23.70
2023-02-22T00:16:08.139Z,26.17
2023-02-22T00:18:37.725Z,23.83
2023-02-22T00:21:10.477Z,30.37
2023-02-22T00:23:46.400Z,28.50
2023-02-22T00:26:18.715Z,32.23
2023-02-22T00:28:48.412Z,28.33
2023-02-22T00:31:17.211Z,25.37
2023-02-22T00:33:46.942Z,28.70
2023-02-22T00:36:15.601Z,33.20
2023-02-22T00:38:43.742Z,30.60
2023-02-22T00:41:13.102Z,28.70
2023-02-22T00:43:41.364Z,22.67
2023-02-22T00:46:09.356Z,29.37
2023-02-22T00:48:37.324Z,38.03
2023-02-22T00:51:07.296Z,26.97
2023-02-22T00:53:35.285Z,29.10
2023-02-22T00:56:03.253Z,25.10
2023-02-22T00:58:32.053Z,27.03
2023-02-22T01:01:00.092Z,35.33
2023-02-22T01:03:28.153Z,29.97
2023-02-22T01:05:56.379Z,38.93
2023-02-22T01:08:26.177Z,37.33
2023-02-22T01:10:54.158Z,30.50
2023-02-22T01:13:23.048Z,31.37
2023-02-22T01:15:51.343Z,39.23
2023-02-22T01:18:21.871Z,43.70
2023-02-22T01:20:49.996Z,34.30
2023-02-22T01:23:18.274Z,37.03
2023-02-22T01:25:47.693Z,29.80
2023-02-22T01:28:15.739Z,31.27
2023-02-22T01:30:43.785Z,32.60
2023-02-22T01:33:13.726Z,36.20
2023-02-22T01:35:43.270Z,35.37
2023-02-22T01:38:11.956Z,43.80
2023-02-22T01:40:43.045Z,40.93
2023-02-22T01:43:22.096Z,40.50
2023-02-22T01:46:00.713Z,40.00
2023-02-22T01:48:41.601Z,35.50
2023-02-22T01:51:14.813Z,45.83
2023-02-22T01:53:49.384Z,34.73
2023-02-22T01:56:19.346Z,39.50
2023-02-22T01:58:55.111Z,36.40
2023-02-22T02:01:27.021Z,32.60
2023-02-22T02:03:59.839Z,30.00
2023-02-22T02:06:32.479Z,32.93
2023-02-22T02:09:07.183Z,36.03
2023-02-22T02:11:35.408Z,33.63
2023-02-22T02:14:04.857Z,33.00
2023-02-22T02:16:40.182Z,30.53
2023-02-22T02:19:29.590Z,33.13
2023-02-22T02:22:23.124Z,38.00
2023-02-22T02:25:41.670Z,30.83
2023-02-22T02:28:46.765Z,38.43
2023-02-22T02:32:03.318Z,27.57
2023-02-22T02:34:37.658Z,35.40
2023-02-22T02:37:14.476Z,32.00
2023-02-22T02:39:50.843Z,33.23
2023-02-22T02:42:26.192Z,45.60
2023-02-22T02:45:08.675Z,32.80
2023-02-22T02:47:42.577Z,37.10
2023-02-22T02:50:18.492Z,34.87
2023-02-22T02:52:47.558Z,36.93
2023-02-22T02:55:16.092Z,39.33
2023-02-22T02:57:44.967Z,56.67
2023-02-22T03:00:23.209Z,34.40
2023-02-22T03:03:06.663Z,35.63
2023-02-22T03:05:59.486Z,37.47
2023-02-22T03:08:36.110Z,43.37
2023-02-22T03:11:15.125Z,56.07
2023-02-22T03:13:53.099Z,41.67
2023-02-22T03:16:31.145Z,40.53
2023-02-22T03:19:08.497Z,32.70
2023-02-22T03:21:46.606Z,44.60
2023-02-22T03:24:21.979Z,46.47
2023-02-22T03:26:58.179Z,39.27
2023-02-22T03:29:28.990Z,39.93
2023-02-22T03:32:01.470Z,34.83
2023-02-22T03:34:36.001Z,52.40
2023-02-22T03:37:14.535Z,46.20
2023-02-22T03:39:45.083Z,41.20
2023-02-22T03:42:20.324Z,38.03
2023-02-22T03:44:50.160Z,42.20
2023-02-22T03:47:24.075Z,40.80
2023-02-22T03:49:57.432Z,48.80
2023-02-22T03:52:27.159Z,34.77
2023-02-22T03:54:55.319Z,45.80
2023-02-22T03:57:28.892Z,43.30
2023-02-22T03:59:57.053Z,46.00
2023-02-22T04:02:25.027Z,37.27
2023-02-22T04:04:53.111Z,44.17
2023-02-22T04:07:21.154Z,48.97
2023-02-22T04:09:50.594Z,47.73
2023-02-22T04:12:18.697Z,43.87
2023-02-22T04:14:46.699Z,58.37
2023-02-22T04:17:14.698Z,50.03
2023-02-22T04:19:45.028Z,47.97
2023-02-22T04:22:13.110Z,51.47
2023-02-22T04:24:41.103Z,45.60
2023-02-22T04:27:10.453Z,39.10
2023-02-22T04:29:38.573Z,59.23
2023-02-22T04:32:06.717Z,49.70
2023-02-22T04:34:34.794Z,53.83
2023-02-22T04:37:03.580Z,51.23
2023-02-22T04:39:31.740Z,65.23
2023-02-22T04:41:59.746Z,52.70
2023-02-22T04:44:29.141Z,47.00
2023-02-22T04:46:57.514Z,43.90
2023-02-22T04:49:25.752Z,54.40
2023-02-22T04:51:53.754Z,48.73
2023-02-22T04:54:21.779Z,61.17
2023-02-22T04:56:49.801Z,55.53
2023-02-22T04:59:19.639Z,53.60
2023-02-22T05:01:48.941Z,45.30
2023-02-22T05:04:16.919Z,39.27
2023-02-22T05:06:44.974Z,47.10
2023-02-22T05:09:12.976Z,48.40
2023-02-22T05:11:41.028Z,56.67
2023-02-22T05:14:09.107Z,57.83
2023-02-22T05:16:37.141Z,49.27
2023-02-22T05:19:06.505Z,48.03
2023-02-22T05:21:34.639Z,51.17
2023-02-22T05:24:02.614Z,62.77
2023-02-22T05:26:30.609Z,52.33
2023-02-22T05:28:58.611Z,40.47
2023-02-22T05:31:26.697Z,54.83
2023-02-22T05:33:54.810Z,54.70
2023-02-22T05:36:24.243Z,44.90
2023-02-22T05:38:54.563Z,43.10
2023-02-22T05:41:22.749Z,47.87
2023-02-22T05:43:51.279Z,48.90
2023-02-22T05:46:19.271Z,41.03
2023-02-22T05:48:47.296Z,42.47
2023-02-22T05:51:15.638Z,42.03
2023-02-22T05:53:45.184Z,48.47
2023-02-22T05:56:13.178Z,42.27
2023-02-22T05:58:41.189Z,36.10
2023-02-22T06:01:09.200Z,37.60
2023-02-22T06:03:37.244Z,45.90
2023-02-22T06:06:05.703Z,35.93
2023-02-22T06:08:33.736Z,31.70
2023-02-22T06:11:03.043Z,38.17
2023-02-22T06:13:31.051Z,35.00
2023-02-22T06:15:59.157Z,42.50
2023-02-22T06:18:30.306Z,36.37
2023-02-22T06:20:58.480Z,43.03
2023-02-22T06:23:26.887Z,39.83
2023-02-22T06:25:54.916Z,43.67
2023-02-22T06:28:24.373Z,33.87
2023-02-22T06:30:52.387Z,27.63
2023-02-22T06:33:20.382Z,38.13
2023-02-22T06:35:48.363Z,32.23
2023-02-22T06:38:23.154Z,32.50
2023-02-22T06:40:51.355Z,31.50
2023-02-22T06:43:19.384Z,25.63
2023-02-22T06:45:49.158Z,30.57
2023-02-22T06:48:17.352Z,26.90
2023-02-22T06:50:45.392Z,24.10
2023-02-22T06:53:13.353Z,27.53
2023-02-22T06:55:41.391Z,22.93
2023-02-22T06:58:09.396Z,27.53
2023-02-22T07:00:37.502Z,31.33
2023-02-22T07:03:06.892Z,29.63
2023-02-22T07:05:35.255Z,37.63
2023-02-22T07:08:07.310Z,25.93
2023-02-22T07:10:37.439Z,34.00
2023-02-22T07:13:08.554Z,33.27
2023-02-22T07:15:37.323Z,26.17
2023-02-22T07:18:07.347Z,26.10
2023-02-22T07:20:36.223Z,23.40
2023-02-22T07:23:04.937Z,17.90
2023-02-22T07:25:33.218Z,22.43
2023-02-22T07:28:01.324Z,23.73
2023-02-22T07:30:32.411Z,23.27
2023-02-22T07:33:02.178Z,25.53
2023-02-22T07:35:33.567Z,21.30
2023-02-22T07:38:01.522Z,32.93
2023-02-22T07:40:29.888Z,23.80
2023-02-22T07:43:01.397Z,22.17
2023-02-22T07:45:33.108Z,25.20
2023-02-22T07:48:03.226Z,25.63
2023-02-22T07:50:34.935Z,23.10
2023-02-22T07:53:05.851Z,21.83
2023-02-22T07:55:35.250Z,24.43
2023-02-22T07:58:05.904Z,15.23
2023-02-22T08:00:36.770Z,22.10
2023-02-22T08:03:08.273Z,23.43
2023-02-22T08:05:40.195Z,28.43
2023-02-22T08:08:09.276Z,19.13
2023-02-22T08:10:37.985Z,28.00
2023-02-22T08:13:06.816Z,13.97
2023-02-22T08:15:38.213Z,19.90
2023-02-22T08:18:10.298Z,18.07
2023-02-22T08:20:43.113Z,25.77
2023-02-22T08:23:13.888Z,14.23
2023-02-22T08:25:42.146Z,17.70
2023-02-22T08:28:13.377Z,35.53
2023-02-22T08:30:42.768Z,18.53
2023-02-22T08:33:14.384Z,20.00
2023-02-22T08:35:44.120Z,27.03
2023-02-22T08:38:19.831Z,74.57
2023-02-22T08:40:49.467Z,48.00
2023-02-22T08:43:18.386Z,34.43
2023-02-22T08:45:47.025Z,36.03
2023-02-22T08:48:15.630Z,26.50
2023-02-22T08:50:45.662Z,32.43
2023-02-22T08:53:16.262Z,30.60
2023-02-22T08:55:44.798Z,31.03
2023-02-22T08:58:13.997Z,25.67
2023-02-22T09:00:44.543Z,34.20
2023-02-22T09:03:15.362Z,24.63
2023-02-22T09:05:45.863Z,33.70
2023-02-22T09:08:14.693Z,39.43
2023-02-22T09:10:43.121Z,29.90
2023-02-22T09:13:13.466Z,33.83
2023-02-22T09:15:41.682Z,27.60
2023-02-22T09:18:14.515Z,31.23
2023-02-22T09:20:44.591Z,32.67
2023-02-22T09:23:14.470Z,32.47
2023-02-22T09:25:42.759Z,33.97
2023-02-22T09:28:11.308Z,40.70
2023-02-22T09:30:39.819Z,48.90
2023-02-22T09:33:11.333Z,48.83
2023-02-22T09:35:42.774Z,48.57
2023-02-22T09:38:13.113Z,68.20
2023-02-22T09:40:45.740Z,90.97
2023-02-22T09:43:35.570Z,50.33
2023-02-22T09:46:20.257Z,53.67
2023-02-22T09:49:05.343Z,126.17
2023-02-22T09:51:41.343Z,154.90
2023-02-22T09:54:20.781Z,147.80
2023-02-22T09:56:51.552Z,107.20
2023-02-22T09:59:27.972Z,135.10
2023-02-22T10:02:06.629Z,71.10
2023-02-22T10:04:47.446Z,52.20
2023-02-22T10:07:25.955Z,49.63
2023-02-22T10:09:56.652Z,58.80
2023-02-22T10:12:31.128Z,62.00
2023-02-22T10:15:35.154Z,68.13
2023-02-22T10:18:40.206Z,62.90
2023-02-22T10:21:21.844Z,76.37
2023-02-22T10:24:02.249Z,72.70
2023-02-22T10:26:37.174Z,91.10
2023-02-22T10:29:13.566Z,96.67
2023-02-22T10:31:46.696Z,59.23
2023-02-22T10:34:18.019Z,59.30
2023-02-22T10:36:50.146Z,90.17
2023-02-22T10:39:28.755Z,66.50
2023-02-22T10:42:05.885Z,48.00
2023-02-22T10:44:34.812Z,134.83
2023-02-22T10:47:06.487Z,157.27
2023-02-22T10:49:40.158Z,299.33
2023-02-22T10:52:15.817Z,151.13
2023-02-22T10:54:48.012Z,194.10
2023-02-22T10:57:23.119Z,134.67
2023-02-22T10:59:52.404Z,198.17
2023-02-22T11:02:24.676Z,141.13
2023-02-22T11:04:55.344Z,95.40
2023-02-22T11:07:28.144Z,122.07
2023-02-22T11:09:59.446Z,88.50
2023-02-22T11:12:33.062Z,98.30
2023-02-22T11:15:29.455Z,102.53
2023-02-22T11:18:01.388Z,83.27
2023-02-22T11:20:34.557Z,80.00
2023-02-22T11:23:04.998Z,72.90
2023-02-22T11:25:35.920Z,95.00
2023-02-22T11:28:14.855Z,86.10
2023-02-22T11:30:45.012Z,148.80
2023-02-22T11:33:23.964Z,133.63
2023-02-22T11:35:55.476Z,122.90
2023-02-22T11:38:26.087Z,109.60
2023-02-22T11:41:14.554Z,100.40
2023-02-22T11:43:46.405Z,105.33
2023-02-22T11:46:18.838Z,97.90
2023-02-22T11:48:59.028Z,91.37
2023-02-22T11:51:54.464Z,85.40
2023-02-22T11:54:53.020Z,57.60
2023-02-22T11:57:46.319Z,87.57
2023-02-22T12:00:25.404Z,79.90
2023-02-22T12:03:17.973Z,67.07
2023-02-22T12:06:07.062Z,72.40
2023-02-22T12:08:53.486Z,83.17
2023-02-22T12:11:29.290Z,66.10
2023-02-22T12:14:13.838Z,53.20
2023-02-22T12:17:14.139Z,53.53
2023-02-22T12:19:46.412Z,47.13
2023-02-22T12:22:21.297Z,37.10
2023-02-22T12:25:08.559Z,43.13
2023-02-22T12:27:42.493Z,33.40
2023-02-22T12:30:20.081Z,40.53
2023-02-22T12:32:55.059Z,41.43
2023-02-22T12:35:26.426Z,39.93
2023-02-22T12:38:05.050Z,39.03
2023-02-22T12:40:40.587Z,38.47
2023-02-22T12:43:17.485Z,32.40
2023-02-22T12:45:51.727Z,36.00
2023-02-22T12:48:34.376Z,37.13
2023-02-22T12:51:16.970Z,36.70
2023-02-22T12:53:53.201Z,41.57
2023-02-22T12:56:27.145Z,43.70
2023-02-22T12:59:02.819Z,31.50
2023-02-22T13:01:39.026Z,30.57
2023-02-22T13:04:20.090Z,35.90
2023-02-22T13:07:03.129Z,29.87
2023-02-22T13:10:20.335Z,29.73
2023-02-22T13:12:59.106Z,28.87
2023-02-22T13:15:34.072Z,31.40
2023-02-22T13:18:13.482Z,29.37
2023-02-22T13:20:48.792Z,41.50
2023-02-22T13:23:27.255Z,35.37
2023-02-22T13:26:00.378Z,34.80
2023-02-22T13:28:37.695Z,32.37
2023-02-22T13:31:28.336Z,38.23
2023-02-22T13:34:17.617Z,30.20
2023-02-22T13:37:08.470Z,28.40
2023-02-22T13:40:19.888Z,30.63
2023-02-22T13:43:11.902Z,31.10
2023-02-22T13:46:00.324Z,32.37
2023-02-22T13:49:08.786Z,30.83
2023-02-22T13:51:50.565Z,31.83
2023-02-22T13:54:29.965Z,31.17
2023-02-22T13:56:58.833Z,36.20
2023-02-22T13:59:31.674Z,30.40
2023-02-22T14:02:04.251Z,32.13
2023-02-22T14:04:42.047Z,33.20
2023-02-22T14:07:49.353Z,32.33
2023-02-22T14:10:39.762Z,29.27
2023-02-22T14:13:10.059Z,26.97
2023-02-22T14:16:16.925Z,29.37
2023-02-22T14:18:49.352Z,34.33
2023-02-22T14:21:20.493Z,36.27
2023-02-22T14:23:51.948Z,42.20
2023-02-22T14:26:27.409Z,39.40
2023-02-22T14:28:58.695Z,31.23
2023-02-22T14:31:36.422Z,38.10
2023-02-22T14:34:12.060Z,36.53
2023-02-22T14:36:50.769Z,29.20
2023-02-22T14:39:27.156Z,38.83
2023-02-22T14:42:01.436Z,38.07
2023-02-22T14:44:35.860Z,34.53
2023-02-22T14:47:08.264Z,38.10
2023-02-22T14:49:42.517Z,44.73
2023-02-22T14:52:24.120Z,31.30
2023-02-22T14:55:08.938Z,41.43
2023-02-22T14:57:53.596Z,38.13
2023-02-22T15:00:39.995Z,30.47
2023-02-22T15:03:18.701Z,40.27
2023-02-22T15:05:47.146Z,40.03
2023-02-22T15:08:18.076Z,32.40
2023-02-22T15:10:49.902Z,35.93
2023-02-22T15:13:21.112Z,33.30
2023-02-22T15:15:55.722Z,36.43
2023-02-22T15:18:29.990Z,37.43
2023-02-22T15:21:05.204Z,41.63
2023-02-22T15:23:43.854Z,41.80
2023-02-22T15:26:20.741Z,39.83
2023-02-22T15:28:49.186Z,39.47
2023-02-22T15:31:29.128Z,42.00
2023-02-22T15:33:57.677Z,42.20
2023-02-22T15:36:30.940Z,37.90
2023-02-22T15:38:59.135Z,29.10
2023-02-22T15:41:32.387Z,34.80
2023-02-22T15:44:14.130Z,39.00
2023-02-22T15:46:49.514Z,36.77
2023-02-22T15:49:25.945Z,35.90
2023-02-22T15:52:08.428Z,37.23
2023-02-22T15:54:46.077Z,36.80
2023-02-22T15:57:21.622Z,31.70
2023-02-22T15:59:53.827Z,32.90
2023-02-22T16:02:34.787Z,31.83
2023-02-22T16:05:08.502Z,29.50
2023-02-22T16:07:42.054Z,31.03
2023-02-22T16:10:22.535Z,38.03
2023-02-22T16:13:04.499Z,28.93
2023-02-22T16:15:34.089Z,29.43
2023-02-22T16:18:31.227Z,32.30
2023-02-22T16:21:02.743Z,38.97
2023-02-22T16:23:33.512Z,32.87
2023-02-22T16:26:24.088Z,34.80
2023-02-22T16:28:56.668Z,44.53
2023-02-22T16:31:27.635Z,24.67
2023-02-22T16:33:56.533Z,37.57
2023-02-22T16:36:38.594Z,33.30
2023-02-22T16:39:08.377Z,38.93
2023-02-22T16:41:36.414Z,20.97
2023-02-22T16:44:10.168Z,24.53
2023-02-22T16:46:38.683Z,25.07
2023-02-22T16:49:06.880Z,32.53
2023-02-22T16:51:43.285Z,26.70
2023-02-22T16:54:14.041Z,33.07
2023-02-22T16:56:42.358Z,29.10
2023-02-22T16:59:15.123Z,28.60
2023-02-22T17:01:44.001Z,25.47
2023-02-22T17:04:17.985Z,22.10
2023-02-22T17:06:46.053Z,22.93
2023-02-22T17:09:15.256Z,28.23
2023-02-22T17:11:44.712Z,25.63
2023-02-22T17:14:20.662Z,34.70
2023-02-22T17:16:48.663Z,103.67
2023-02-22T17:19:19.360Z,82.23
2023-02-22T17:21:48.010Z,39.87
2023-02-22T17:24:19.993Z,23.57
2023-02-22T17:26:48.072Z,23.83
2023-02-22T17:29:18.626Z,27.37
2023-02-22T17:31:48.811Z,32.80
2023-02-22T17:34:17.841Z,27.07
2023-02-22T17:36:46.016Z,29.53
2023-02-22T17:39:13.967Z,41.07
2023-02-22T17:41:42.080Z,25.93
2023-02-22T17:44:10.235Z,23.63
2023-02-22T17:46:41.671Z,35.37
2023-02-22T17:49:09.734Z,34.80
2023-02-22T17:51:41.569Z,25.07
2023-02-22T17:54:10.500Z,31.00
2023-02-22T17:56:38.598Z,32.10
2023-02-22T17:59:09.018Z,32.10
2023-02-22T18:01:38.780Z,23.80
2023-02-22T18:04:07.364Z,27.53
2023-02-22T18:06:36.228Z,35.13
2023-02-22T18:09:10.580Z,31.90
2023-02-22T18:11:40.265Z,26.03
2023-02-22T18:14:10.694Z,42.50
2023-02-22T18:16:40.590Z,25.30
2023-02-22T18:19:08.626Z,28.67
2023-02-22T18:21:38.726Z,28.90
2023-02-22T18:24:07.787Z,27.30
2023-02-22T18:26:38.868Z,24.80
2023-02-22T18:29:07.471Z,33.40
2023-02-22T18:31:35.514Z,33.63
2023-02-22T18:34:04.947Z,29.07
2023-02-22T18:36:32.956Z,33.10
2023-02-22T18:39:01.028Z,27.43
2023-02-22T18:41:29.052Z,29.63
2023-02-22T18:44:00.337Z,26.47
2023-02-22T18:46:29.894Z,33.30
2023-02-22T18:48:58.908Z,29.43
2023-02-22T18:51:29.584Z,22.57
2023-02-22T18:54:00.420Z,25.70
2023-02-22T18:56:30.685Z,32.10
2023-02-22T18:59:00.929Z,30.20
2023-02-22T19:01:29.957Z,24.00
2023-02-22T19:03:58.068Z,48.47
2023-02-22T19:06:27.759Z,28.10
2023-02-22T19:08:55.782Z,21.80
2023-02-22T19:11:25.590Z,23.67
2023-02-22T19:13:57.232Z,34.97
2023-02-22T19:16:27.809Z,31.33
2023-02-22T19:18:57.923Z,25.23
2023-02-22T19:21:29.095Z,28.90
2023-02-22T19:23:57.615Z,32.83
2023-02-22T19:26:28.998Z,28.97
2023-02-22T19:28:59.530Z,30.27
2023-02-22T19:31:31.632Z,31.30
2023-02-22T19:34:02.572Z,31.53
2023-02-22T19:36:32.581Z,27.10
2023-02-22T19:39:01.666Z,24.40
2023-02-22T19:41:30.633Z,25.63
2023-02-22T19:43:59.380Z,29.30
2023-02-22T19:46:28.135Z,32.90
2023-02-22T19:48:56.589Z,28.47
2023-02-22T19:51:30.138Z,41.10
2023-02-22T19:54:03.371Z,35.00
2023-02-22T19:56:32.477Z,27.10
2023-02-22T19:59:09.591Z,34.10
2023-02-22T20:01:38.433Z,33.47
2023-02-22T20:04:09.099Z,26.83
2023-02-22T20:06:40.132Z,33.27
2023-02-22T20:09:12.687Z,28.83
2023-02-22T20:11:41.203Z,31.40
2023-02-22T20:14:09.230Z,26.27
2023-02-22T20:16:38.269Z,34.83
2023-02-22T20:19:07.809Z,31.83
2023-02-22T20:21:37.053Z,25.33
2023-02-22T20:24:08.392Z,25.83
2023-02-22T20:26:39.184Z,33.53
2023-02-22T20:29:09.234Z,31.40
2023-02-22T20:31:39.231Z,27.60
2023-02-22T20:34:07.652Z,34.20
2023-02-22T20:36:37.578Z,32.10
2023-02-22T20:39:13.014Z,30.93
2023-02-22T20:41:46.932Z,38.53
2023-02-22T20:44:18.293Z,31.17
2023-02-22T20:46:48.092Z,28.43
2023-02-22T20:49:19.650Z,38.20
2023-02-22T20:51:49.970Z,27.17
2023-02-22T20:54:19.362Z,32.93
2023-02-22T20:56:52.666Z,29.73
2023-02-22T20:59:22.569Z,25.30
2023-02-22T21:01:52.972Z,30.57
2023-02-22T21:04:23.758Z,29.23
2023-02-22T21:06:53.441Z,31.07
2023-02-22T21:09:23.809Z,35.23
2023-02-22T21:11:54.040Z,30.40
2023-02-22T21:14:24.360Z,35.40
2023-02-22T21:16:54.409Z,30.20
2023-02-22T21:19:26.727Z,30.40
2023-02-22T21:21:57.011Z,31.00
2023-02-22T21:24:27.986Z,26.07
2023-02-22T21:26:58.966Z,28.87
2023-02-22T21:29:28.468Z,19.77
2023-02-22T21:31:57.982Z,30.17
2023-02-22T21:34:27.080Z,34.23
2023-02-22T21:36:56.990Z,30.47
2023-02-22T21:39:28.684Z,42.90
2023-02-22T21:42:00.386Z,28.40
2023-02-22T21:44:29.177Z,27.53
2023-02-22T21:46:57.616Z,40.53
2023-02-22T21:49:26.164Z,24.63
2023-02-22T21:51:54.118Z,27.97
2023-02-22T21:54:23.316Z,27.53
2023-02-22T21:56:51.922Z,27.67
2023-02-22T21:59:23.633Z,39.20
2023-02-22T22:01:55.567Z,30.00
2023-02-22T22:04:27.528Z,32.20
2023-02-22T22:06:58.313Z,35.90
2023-02-22T22:09:29.054Z,28.60
2023-02-22T22:12:00.015Z,30.73
2023-02-22T22:14:29.423Z,27.83
2023-02-22T22:16:59.544Z,30.13
2023-02-22T22:19:29.085Z,35.77
2023-02-22T22:21:57.377Z,35.73
2023-02-22T22:24:27.051Z,29.63
2023-02-22T22:26:56.042Z,28.17
2023-02-22T22:29:26.506Z,39.13
2023-02-22T22:31:56.589Z,32.00
2023-02-22T22:34:29.255Z,34.90
2023-02-22T22:36:58.864Z,25.87
2023-02-22T22:39:27.677Z,30.77
2023-02-22T22:41:56.274Z,33.80
2023-02-22T22:44:24.329Z,39.50
2023-02-22T22:46:54.671Z,34.77
2023-02-22T22:49:25.476Z,23.97
2023-02-22T22:51:54.458Z,38.27
2023-02-22T22:54:22.464Z,29.80
2023-02-22T22:56:50.448Z,26.40
2023-02-22T22:59:18.465Z,33.40
2023-02-22T23:01:46.473Z,28.03
2023-02-22T23:04:17.186Z,20.67
2023-02-22T23:06:49.802Z,33.60
2023-02-22T23:09:21.719Z,35.03
2023-02-22T23:11:53.271Z,31.80
2023-02-22T23:14:24.027Z,38.53
2023-02-22T23:16:55.136Z,41.43
2023-02-22T23:19:23.847Z,29.90
2023-02-22T23:21:55.865Z,23.07
2023-02-22T23:24:27.185Z,28.93
2023-02-22T23:26:59.813Z,27.80
2023-02-22T23:29:29.773Z,28.37
2023-02-22T23:31:58.659Z,34.93
2023-02-22T23:34:28.937Z,31.40
2023-02-22T23:36:58.571Z,29.20
2023-02-22T23:39:27.223Z,24.37
2023-02-22T23:41:59.012Z,25.07
2023-02-22T23:44:27.515Z,27.87
2023-02-22T23:46:56.071Z,29.13
2023-02-22T23:49:26.741Z,35.67
2023-02-22T23:51:55.628Z,32.67
2023-02-22T23:54:25.278Z,33.13
2023-02-22T23:56:56.645Z,28.80
2023-02-22T23:59:25.908Z,27.43
